Federal Dam, Minnesota
Current Conditions -  °F | °C
As of 8:35 AM on Wednesday 22 Oct 2014 (Local Time) from KY49 Reporting Station
Broken Clouds Broken Clouds  
Wind Chill: 38°   Ceiling: 5000
Heat Index: 44°   Visibility: 10mi
Dew Point: 37°   Wind: 14mph
Humidity: 77%   Direction: 160°SSE
Pressure: 30.02"   Gusts: 18mph
Location:  47.25°N, 94.21°W
Report Text: KY49 221335Z AUTO 16012G16KT 10SM BKN050 07/03 A3002 RMK AO2 T00680030
Loading
Personal Weather Stations






























Interactive Weather Map
Tropical Storm Tracking
New forecast layout! Learn more

10-Day Weather Forecast

Advertisements
Track Severe Weather on mobile